Darstellungsparameter: Aktuell verwendete Einstellungen:
Skalierung der Graphiken ... ?
xyx+y,   Skalierungsfaktor:      Skalierung: Modus: x, Faktor: 1
Darstellungszeitraum ... ?
Vom - - bis: - -   Zeitraum: 20.04.2019 - 19.05.2019
Min/Max/Avg-Anzeige ... ?
Zeige MMA aktuell
Zeige MMA Monat
Zeige MMA alles
Zeige --A aktuell
Zeige --A Monat
Zeige --A alles
Keine MMA-Anzeige
MMA:
Average (ber die Originaldaten)
MMA-Basis: 20.04.2019 - 19.05.2019
Quicknavigation für Darstellung... ?
Tage:      1T, 2T, 3T, 5T -1T -2T -3T -5T +1T +2T +3T +5T
Wochen: 1W, 2W, 3W -1W -2W -3W +1W +2W +3W
Monate: 1M, 3M, 6M -1M -3M -6M +1M +3M +6M
Jahre:    1J, 3J, 5J, 10J -1J -3J -5J -10J +1J +3J +5J +10J
Nutze für die Darstellung ... ?
Originaldaten oder ...
Mittelwerte Minima Maxima auf...
Stundenbasis Tagesbasis Wochenbasis
Monatsbasis Jahresbasis      Datenbasis: Mittelwerte auf Stundenbasis
Darstellen als:
Statistik (Auto) Statistik J:M      Darstellung:
Zur Graphik,    zurück zur Übersicht aller Sensoren.
 
Tabellarische Datenbersicht: ?
 
Sensor: Nr:Datum:Temp:Abs-Feuchte:Windchill:Wind:
Aussen-T/F 1 20-04-2019 00:00:00 10.40833 C 6.81 g/m*3 10.41 C 0.4 km/h
2 20-04-2019 01:00:00 9.45833 C 6.91 g/m*3 9.46 C 0 km/h
3 20-04-2019 02:00:00 8.55833 C 6.93 g/m*3 8.56 C 0 km/h
4 20-04-2019 03:00:00 7.64167 C 6.79 g/m*3 7.64 C 0 km/h
5 20-04-2019 04:00:00 6.85 C 6.68 g/m*3 6.85 C 0 km/h
6 20-04-2019 05:00:00 6.23333 C 6.58 g/m*3 6.23 C 0 km/h
7 20-04-2019 06:00:00 5.775 C 6.48 g/m*3 5.78 C 0 km/h
8 20-04-2019 07:00:00 5.85833 C 6.61 g/m*3 5.86 C 0.13333 km/h
9 20-04-2019 08:00:00 6.48333 C 6.92 g/m*3 6.48 C 0 km/h
10 20-04-2019 09:00:00 8.16667 C 7.71 g/m*3 8.17 C 0 km/h
11 20-04-2019 10:00:00 11.68333 C 8.74 g/m*3 11.68 C 1.33333 km/h
12 20-04-2019 11:00:00 16.725 C 9.1 g/m*3 16.73 C 3.46667 km/h
13 20-04-2019 12:00:00 20.225 C 8.22 g/m*3 20.23 C 6.7 km/h
14 20-04-2019 13:00:00 22.05 C 7.07 g/m*3 22.05 C 10.61667 km/h
15 20-04-2019 14:00:00 23.275 C 6.04 g/m*3 23.28 C 11.95 km/h
16 20-04-2019 15:00:00 24.25833 C 6.13 g/m*3 24.26 C 11.96667 km/h
17 20-04-2019 16:00:00 25.21667 C 6.21 g/m*3 25.22 C 12.36667 km/h
18 20-04-2019 17:00:00 25.30833 C 5.89 g/m*3 25.31 C 14.1 km/h
19 20-04-2019 18:00:00 25.39167 C 5.55 g/m*3 25.39 C 10.89167 km/h
20 20-04-2019 19:00:00 24.575 C 6.03 g/m*3 24.58 C 5.5 km/h
21 20-04-2019 20:00:00 19.875 C 7.41 g/m*3 19.88 C 3.6 km/h
22 20-04-2019 21:00:00 16.175 C 7.52 g/m*3 16.18 C 0.66667 km/h
23 20-04-2019 22:00:00 13.81667 C 7.54 g/m*3 13.82 C 0 km/h
24 20-04-2019 23:00:00 12.90833 C 7.4 g/m*3 12.91 C 0 km/h
25 21-04-2019 00:00:00 12.84167 C 7.27 g/m*3 12.84 C 0 km/h
Sensor: Nr:Datum:Temp:Abs-Feuchte:Windchill:Wind:
Aussen-T/F 26 21-04-2019 01:00:00 12.48333 C 7.18 g/m*3 12.48 C 0 km/h
27 21-04-2019 02:00:00 11.36667 C 7.19 g/m*3 11.37 C 0 km/h
28 21-04-2019 03:00:00 10.81667 C 7.23 g/m*3 10.82 C 0 km/h
29 21-04-2019 04:00:00 9.23333 C 7.01 g/m*3 9.23 C 0 km/h
30 21-04-2019 05:00:00 7.375 C 6.74 g/m*3 7.38 C 0 km/h
31 21-04-2019 06:00:00 6.45 C 6.56 g/m*3 6.45 C 0 km/h
32 21-04-2019 07:00:00 6.68333 C 6.77 g/m*3 6.68 C 0 km/h
33 21-04-2019 08:00:00 7.16667 C 7.04 g/m*3 7.17 C 0 km/h
34 21-04-2019 09:00:00 8.675 C 7.73 g/m*3 8.68 C 0 km/h
35 21-04-2019 10:00:00 11.98333 C 8.67 g/m*3 11.98 C 0 km/h
36 21-04-2019 11:00:00 16.48333 C 8.88 g/m*3 16.48 C 1.2 km/h
37 21-04-2019 12:00:00 19.65833 C 7.65 g/m*3 19.66 C 5.08333 km/h
38 21-04-2019 13:00:00 21.525 C 6.63 g/m*3 21.53 C 7.65833 km/h
39 21-04-2019 14:00:00 22.98333 C 6.16 g/m*3 22.98 C 8.2 km/h
40 21-04-2019 15:00:00 24.46667 C 6.78 g/m*3 24.47 C 9.81667 km/h
41 21-04-2019 16:00:00 25.73333 C 6.32 g/m*3 25.73 C 11.41667 km/h
42 21-04-2019 17:00:00 25.94167 C 5.95 g/m*3 25.94 C 11.825 km/h
43 21-04-2019 18:00:00 26.13333 C 5.97 g/m*3 26.13 C 7.50833 km/h
44 21-04-2019 19:00:00 24.58333 C 6.37 g/m*3 24.58 C 4.95 km/h
45 21-04-2019 20:00:00 19.69167 C 6.89 g/m*3 19.69 C 3.6 km/h
46 21-04-2019 21:00:00 16.725 C 7.21 g/m*3 16.73 C 2.26667 km/h
47 21-04-2019 22:00:00 13.85833 C 7.54 g/m*3 13.86 C 0 km/h
48 21-04-2019 23:00:00 12.21667 C 7.25 g/m*3 12.22 C 0 km/h
49 22-04-2019 00:00:00 10.54167 C 7.03 g/m*3 10.54 C 0 km/h
50 22-04-2019 01:00:00 9.24167 C 6.98 g/m*3 9.24 C 0 km/h
Sensor: Nr:Datum:Temp:Abs-Feuchte:Windchill:Wind:
Aussen-T/F 51 22-04-2019 02:00:00 8.2 C 6.91 g/m*3 8.2 C 0.13333 km/h
52 22-04-2019 03:00:00 7.56667 C 6.83 g/m*3 7.57 C 0.13333 km/h
53 22-04-2019 04:00:00 6.64167 C 6.65 g/m*3 6.64 C 0 km/h
54 22-04-2019 05:00:00 5.89167 C 6.51 g/m*3 5.89 C 0 km/h
55 22-04-2019 06:00:00 5.475 C 6.43 g/m*3 5.48 C 0 km/h
56 22-04-2019 07:00:00 5.74167 C 6.63 g/m*3 5.74 C 0 km/h
57 22-04-2019 08:00:00 6.54167 C 6.99 g/m*3 6.54 C 0 km/h
58 22-04-2019 09:00:00 8.40833 C 7.81 g/m*3 8.41 C 0.8 km/h
59 22-04-2019 10:00:00 12.55 C 8.39 g/m*3 12.55 C 3.075 km/h
60 22-04-2019 11:00:00 17.96667 C 7.52 g/m*3 17.97 C 11.825 km/h
61 22-04-2019 12:00:00 20.89167 C 6.96 g/m*3 20.89 C 12.76667 km/h
62 22-04-2019 13:00:00 22.65 C 5.99 g/m*3 22.65 C 14.36667 km/h
63 22-04-2019 14:00:00 23.45 C 6.13 g/m*3 23.45 C 15.3 km/h
64 22-04-2019 15:00:00 24.375 C 6.32 g/m*3 24.38 C 15.03333 km/h
65 22-04-2019 16:00:00 25.49167 C 6.11 g/m*3 25.49 C 15.83333 km/h
66 22-04-2019 17:00:00 25.70833 C 5.93 g/m*3 25.71 C 12.9 km/h
67 22-04-2019 18:00:00 24.4 C 6.25 g/m*3 24.4 C 4.55833 km/h
68 22-04-2019 19:00:00 21.4 C 7.8 g/m*3 21.4 C 2 km/h
69 22-04-2019 20:00:00 19.55 C 7.24 g/m*3 19.55 C 5.50833 km/h
70 22-04-2019 21:00:00 16.975 C 7.06 g/m*3 16.98 C 3.46667 km/h
71 22-04-2019 22:00:00 15.15 C 6.63 g/m*3 15.15 C 3.74167 km/h
72 22-04-2019 23:00:00 15.04167 C 6.34 g/m*3 15.04 C 5.36667 km/h
73 23-04-2019 00:00:00 13.175 C 6.4 g/m*3 13.18 C 2.13333 km/h
74 23-04-2019 01:00:00 11.55 C 6.45 g/m*3 11.55 C 0.53333 km/h
75 23-04-2019 02:00:00 10.31667 C 6.42 g/m*3 10.32 C 0.66667 km/h
Sensor: Nr:Datum:Temp:Abs-Feuchte:Windchill:Wind:
Aussen-T/F 76 23-04-2019 03:00:00 9.7 C 6.31 g/m*3 9.7 C 0 km/h
77 23-04-2019 04:00:00 9.15833 C 6.39 g/m*3 9.16 C 0 km/h
78 23-04-2019 05:00:00 8.83333 C 6.38 g/m*3 8.83 C 0 km/h
79 23-04-2019 06:00:00 8.31667 C 6.41 g/m*3 8.32 C 0 km/h
80 23-04-2019 07:00:00 8.99167 C 6.81 g/m*3 8.99 C 0 km/h
81 23-04-2019 08:00:00 10.325 C 7.31 g/m*3 10.33 C 0 km/h
82 23-04-2019 09:00:00 12.53333 C 7.04 g/m*3 12.53 C 7.94167 km/h
83 23-04-2019 10:00:00 14.025 C 7.28 g/m*3 14.03 C 9.95833 km/h
84 23-04-2019 11:00:00 15.475 C 7.58 g/m*3 15.48 C 12.76667 km/h
85 23-04-2019 12:00:00 17.04167 C 8.01 g/m*3 17.04 C 11.56667 km/h
86 23-04-2019 13:00:00 18.89167 C 8.29 g/m*3 18.89 C 14.36667 km/h
87 23-04-2019 14:00:00 20.44167 C 8.5 g/m*3 20.44 C 13.16667 km/h
88 23-04-2019 15:00:00 21.76667 C 8.55 g/m*3 21.77 C 14.76667 km/h
89 23-04-2019 16:00:00 23.1 C 8.79 g/m*3 23.1 C 10.875 km/h
90 23-04-2019 17:00:00 23.4 C 8.97 g/m*3 23.4 C 8.475 km/h
91 23-04-2019 18:00:00 21.775 C 8.86 g/m*3 21.78 C 7.91667 km/h
92 23-04-2019 19:00:00 20.31667 C 9.21 g/m*3 20.32 C 2.93333 km/h
93 23-04-2019 20:00:00 17.975 C 9.41 g/m*3 17.98 C 0.53333 km/h
94 23-04-2019 21:00:00 16.08333 C 9.45 g/m*3 16.08 C 0.13333 km/h
95 23-04-2019 22:00:00 15.54167 C 9.44 g/m*3 15.54 C 0 km/h
96 23-04-2019 23:00:00 15.08333 C 9.3 g/m*3 15.08 C 0 km/h
97 24-04-2019 00:00:00 14.425 C 9.31 g/m*3 14.43 C 0 km/h
98 24-04-2019 01:00:00 12.65833 C 8.71 g/m*3 12.66 C 0 km/h
99 24-04-2019 02:00:00 11.325 C 8.48 g/m*3 11.33 C 0 km/h
100 24-04-2019 03:00:00 10.39167 C 8.33 g/m*3 10.39 C 0 km/h
Sensor: Nr:Datum:Temp:Abs-Feuchte:Windchill:Wind:
Aussen-T/F 101 24-04-2019 04:00:00 9.89167 C 8.28 g/m*3 9.89 C 0 km/h
102 24-04-2019 05:00:00 9.35 C 8.12 g/m*3 9.35 C 0 km/h
103 24-04-2019 06:00:00 9.1 C 8.13 g/m*3 9.1 C 0.26667 km/h
104 24-04-2019 07:00:00 9.66667 C 8.51 g/m*3 9.67 C 0 km/h
105 24-04-2019 08:00:00 11.55833 C 9.01 g/m*3 11.56 C 0 km/h
106 24-04-2019 09:00:00 13.39167 C 9.57 g/m*3 13.39 C 0 km/h
107 24-04-2019 10:00:00 16.14167 C 10.2 g/m*3 16.14 C 0 km/h
108 24-04-2019 11:00:00 18.73333 C 10.71 g/m*3 18.73 C 1.74167 km/h
109 24-04-2019 12:00:00 21.425 C 9.5 g/m*3 21.43 C 9.14167 km/h
110 24-04-2019 13:00:00 22.38333 C 9.03 g/m*3 22.38 C 9.14167 km/h
111 24-04-2019 14:00:00 23.45 C 9.01 g/m*3 23.45 C 6.05 km/h
112 24-04-2019 15:00:00 24.80833 C 8.88 g/m*3 24.81 C 6.56667 km/h
113 24-04-2019 16:00:00 25.20833 C 9.14 g/m*3 25.21 C 6.15833 km/h
114 24-04-2019 17:00:00 25.675 C 9.78 g/m*3 25.68 C 6.16667 km/h
115 24-04-2019 18:00:00 19.91667 C 9.77 g/m*3 19.92 C 24.66667 km/h
116 24-04-2019 19:00:00 13.875 C 9.24 g/m*3 13.88 C 28.94167 km/h
117 24-04-2019 20:00:00 11.34167 C 8.8 g/m*3 11.34 C 16.225 km/h
118 24-04-2019 21:00:00 9.85 C 8.55 g/m*3 9.85 C 1.86667 km/h
119 24-04-2019 22:00:00 9.16667 C 8.33 g/m*3 9.17 C 0 km/h
120 24-04-2019 23:00:00 9.00833 C 8.37 g/m*3 9.01 C 0 km/h
121 25-04-2019 00:00:00 8.85833 C 8.3 g/m*3 8.86 C 0.4 km/h
122 25-04-2019 01:00:00 8.125 C 7.92 g/m*3 8.13 C 0.66667 km/h
123 25-04-2019 02:00:00 7.45 C 7.6 g/m*3 7.45 C 0 km/h
124 25-04-2019 03:00:00 7.2 C 7.54 g/m*3 7.2 C 0 km/h
125 25-04-2019 04:00:00 7.05833 C 7.47 g/m*3 7.06 C 0 km/h
Sensor: Nr:Datum:Temp:Abs-Feuchte:Windchill:Wind:
Aussen-T/F 126 25-04-2019 05:00:00 7.10833 C 7.49 g/m*3 7.11 C 0 km/h
127 25-04-2019 06:00:00 7.05833 C 7.53 g/m*3 7.06 C 0.4 km/h
128 25-04-2019 07:00:00 7.85833 C 7.95 g/m*3 7.86 C 0.53333 km/h
129 25-04-2019 08:00:00 9.16667 C 8.64 g/m*3 9.17 C 3.06667 km/h
130 25-04-2019 09:00:00 10.63333 C 9.49 g/m*3 10.63 C 0.13333 km/h
131 25-04-2019 10:00:00 11.54167 C 9.93 g/m*3 11.54 C 1.75 km/h
132 25-04-2019 11:00:00 14.14167 C 9.69 g/m*3 14.14 C 8.06667 km/h
133 25-04-2019 12:00:00 16.96667 C 9.24 g/m*3 16.97 C 8.60833 km/h
134 25-04-2019 13:00:00 18.6 C 9.35 g/m*3 18.6 C 8.61667 km/h
135 25-04-2019 14:00:00 20.25833 C 9.3 g/m*3 20.26 C 7.39167 km/h
136 25-04-2019 15:00:00 21.525 C 9.32 g/m*3 21.53 C 8.19167 km/h
137 25-04-2019 16:00:00 22.125 C 10.75 g/m*3 22.13 C 3.21667 km/h
138 25-04-2019 17:00:00 21.35 C 11.08 g/m*3 21.35 C 6.725 km/h
139 25-04-2019 18:00:00 20.55833 C 9.8 g/m*3 20.56 C 13.95833 km/h
140 25-04-2019 19:00:00 16.88333 C 8.82 g/m*3 16.88 C 17.45 km/h
141 25-04-2019 20:00:00 15.125 C 8.62 g/m*3 15.13 C 12.61667 km/h
142 25-04-2019 21:00:00 13.85 C 8.64 g/m*3 13.85 C 7.125 km/h
143 25-04-2019 22:00:00 13.04167 C 8.49 g/m*3 13.04 C 2.4 km/h
144 25-04-2019 23:00:00 12.425 C 8.57 g/m*3 12.43 C 0 km/h
145 26-04-2019 00:00:00 11.39167 C 8.43 g/m*3 11.39 C 0 km/h
146 26-04-2019 01:00:00 10.93333 C 8.5 g/m*3 10.93 C 0 km/h
147 26-04-2019 02:00:00 11.00833 C 8.44 g/m*3 11.01 C 0 km/h
148 26-04-2019 03:00:00 10.98333 C 8.31 g/m*3 10.98 C 0 km/h
149 26-04-2019 04:00:00 10.8 C 8.27 g/m*3 10.8 C 2.80833 km/h
150 26-04-2019 05:00:00 10.4 C 8.38 g/m*3 10.4 C 2.80833 km/h
Sensor: Nr:Datum:Temp:Abs-Feuchte:Windchill:Wind:
Aussen-T/F 151 26-04-2019 06:00:00 9.625 C 8.44 g/m*3 9.63 C 0.93333 km/h
152 26-04-2019 07:00:00 9.5 C 8.55 g/m*3 9.5 C 0.93333 km/h
153 26-04-2019 08:00:00 9.50833 C 8.62 g/m*3 9.51 C 0.8 km/h
154 26-04-2019 09:00:00 9.99167 C 8.92 g/m*3 9.99 C 3.08333 km/h
155 26-04-2019 10:00:00 10.275 C 9.08 g/m*3 10.28 C 3.48333 km/h
156 26-04-2019 11:00:00 10.88333 C 9.29 g/m*3 10.88 C 4.55833 km/h
157 26-04-2019 12:00:00 11.95833 C 9.42 g/m*3 11.96 C 8.73333 km/h
158 26-04-2019 13:00:00 13.00833 C 9.36 g/m*3 13.01 C 9.68333 km/h
159 26-04-2019 14:00:00 13.53333 C 9.16 g/m*3 13.53 C 10.9 km/h
160 26-04-2019 15:00:00 13.525 C 8.98 g/m*3 13.53 C 9 km/h
161 26-04-2019 16:00:00 15.06667 C 9.1 g/m*3 15.07 C 8.74167 km/h
162 26-04-2019 17:00:00 15.74167 C 8.85 g/m*3 15.74 C 6.025 km/h
163 26-04-2019 18:00:00 16.925 C 8.93 g/m*3 16.93 C 3.60833 km/h
164 26-04-2019 19:00:00 15.84167 C 9.71 g/m*3 15.84 C 0 km/h
165 26-04-2019 20:00:00 12.575 C 8.92 g/m*3 12.58 C 7.89167 km/h
166 26-04-2019 21:00:00 10.89167 C 8.66 g/m*3 10.89 C 2.13333 km/h
167 26-04-2019 22:00:00 10.45833 C 8.59 g/m*3 10.46 C 0 km/h
168 26-04-2019 23:00:00 10.00833 C 8.49 g/m*3 10.01 C 0 km/h
169 27-04-2019 00:00:00 9.20833 C 8.21 g/m*3 9.21 C 0 km/h
170 27-04-2019 01:00:00 9.14167 C 8.27 g/m*3 9.14 C 0 km/h
171 27-04-2019 02:00:00 8.575 C 7.99 g/m*3 8.57 C 0.26667 km/h
172 27-04-2019 03:00:00 7.875 C 7.71 g/m*3 7.88 C 0 km/h
173 27-04-2019 04:00:00 7.18333 C 7.39 g/m*3 7.18 C 0 km/h
174 27-04-2019 05:00:00 6.64167 C 7.18 g/m*3 6.64 C 0 km/h
175 27-04-2019 06:00:00 6.425 C 7.12 g/m*3 6.43 C 0 km/h
Sensor: Nr:Datum:Temp:Abs-Feuchte:Windchill:Wind:
Aussen-T/F 176 27-04-2019 07:00:00 7.15 C 7.51 g/m*3 7.15 C 0 km/h
177 27-04-2019 08:00:00 8.66667 C 8.36 g/m*3 8.67 C 0 km/h
178 27-04-2019 09:00:00 10.16667 C 9.01 g/m*3 10.17 C 1.33333 km/h
179 27-04-2019 10:00:00 11.30833 C 8.95 g/m*3 11.31 C 3.075 km/h
180 27-04-2019 11:00:00 12.64167 C 8.49 g/m*3 12.64 C 11.14167 km/h
181 27-04-2019 12:00:00 12.69167 C 9.08 g/m*3 12.69 C 9.29167 km/h
182 27-04-2019 13:00:00 13.025 C 8.85 g/m*3 13.03 C 14.90833 km/h
183 27-04-2019 14:00:00 9.525 C 8.21 g/m*3 8.62 C 7.24167 km/h
184 27-04-2019 15:00:00 10.46667 C 8.71 g/m*3 10.47 C 3.475 km/h
185 27-04-2019 16:00:00 11.75 C 8.58 g/m*3 11.75 C 6.85 km/h
186 27-04-2019 17:00:00 12.35 C 8.56 g/m*3 12.35 C 6.84167 km/h
187 27-04-2019 18:00:00 11.34167 C 8.22 g/m*3 11.34 C 5.89167 km/h
188 27-04-2019 19:00:00 9.55833 C 8.23 g/m*3 8.92 C 6.16667 km/h
189 27-04-2019 20:00:00 7.725 C 7.49 g/m*3 7.73 C 3.33333 km/h
190 27-04-2019 21:00:00 7.3 C 7.41 g/m*3 7.3 C 0.8 km/h
191 27-04-2019 22:00:00 6.76667 C 7.22 g/m*3 6.77 C 1.33333 km/h
192 27-04-2019 23:00:00 6.84167 C 7.28 g/m*3 6.84 C 4.55833 km/h
193 28-04-2019 00:00:00 6.86667 C 7.2 g/m*3 6.87 C 4.15 km/h
194 28-04-2019 01:00:00 6.875 C 7.09 g/m*3 5.87 C 6.025 km/h
195 28-04-2019 02:00:00 6.43333 C 6.8 g/m*3 5.45 C 5.76667 km/h
196 28-04-2019 03:00:00 6.19167 C 6.63 g/m*3 5 C 6.30833 km/h
197 28-04-2019 04:00:00 6.41667 C 6.58 g/m*3 4.26 C 10.475 km/h
198 28-04-2019 05:00:00 6.26667 C 6.55 g/m*3 4.13 C 10.20833 km/h
199 28-04-2019 06:00:00 6.2 C 6.53 g/m*3 4.7 C 7.39167 km/h
200 28-04-2019 07:00:00 6.80833 C 6.75 g/m*3 5.45 C 7.25833 km/h
Sensor: Nr:Datum:Temp:Abs-Feuchte:Windchill:Wind:
Aussen-T/F 201 28-04-2019 08:00:00 7.575 C 6.92 g/m*3 6.24 C 7.65833 km/h
202 28-04-2019 09:00:00 7.93333 C 7.13 g/m*3 7.93 C 4.28333 km/h
203 28-04-2019 10:00:00 8.90833 C 7.27 g/m*3 8.18 C 6.15 km/h
204 28-04-2019 11:00:00 10 C 6.98 g/m*3 8.42 C 11.3 km/h
205 28-04-2019 12:00:00 10.325 C 6.77 g/m*3 9.12 C 9.39167 km/h
206 28-04-2019 13:00:00 11.3 C 6.83 g/m*3 11.3 C 8.61667 km/h
207 28-04-2019 14:00:00 12.35 C 7.24 g/m*3 12.35 C 7.125 km/h
208 28-04-2019 15:00:00 11.50833 C 7.58 g/m*3 11.51 C 6.56667 km/h
209 28-04-2019 16:00:00 10.375 C 8.07 g/m*3 10.11 C 5.23333 km/h
210 28-04-2019 17:00:00 11.44167 C 8.14 g/m*3 11.44 C 2.54167 km/h
211 28-04-2019 18:00:00 11.48333 C 7.7 g/m*3 11.48 C 6.73333 km/h
212 28-04-2019 19:00:00 10.86667 C 7.54 g/m*3 10.24 C 6.975 km/h
213 28-04-2019 20:00:00 9.65 C 7.37 g/m*3 9.65 C 1.475 km/h
214 28-04-2019 21:00:00 7.30833 C 6.87 g/m*3 7.31 C 0 km/h
215 28-04-2019 22:00:00 5.96667 C 6.55 g/m*3 5.97 C 0 km/h
216 28-04-2019 23:00:00 5 C 6.27 g/m*3 5 C 0 km/h
217 29-04-2019 00:00:00 4.41667 C 6.12 g/m*3 4.42 C 0 km/h
218 29-04-2019 01:00:00 4.03333 C 5.99 g/m*3 4.03 C 0 km/h
219 29-04-2019 02:00:00 3.425 C 5.8 g/m*3 3.43 C 0 km/h
220 29-04-2019 03:00:00 3.675 C 5.91 g/m*3 3.68 C 0 km/h
221 29-04-2019 04:00:00 3.54167 C 5.89 g/m*3 3.54 C 0 km/h
222 29-04-2019 05:00:00 3.35833 C 5.85 g/m*3 3.36 C 4.26667 km/h
223 29-04-2019 06:00:00 3.15 C 5.77 g/m*3 3.15 C 1.46667 km/h
224 29-04-2019 07:00:00 3.225 C 5.79 g/m*3 3.23 C 1.73333 km/h
225 29-04-2019 08:00:00 3.85833 C 6.07 g/m*3 3.86 C 4.26667 km/h
Sensor: Nr:Datum:Temp:Abs-Feuchte:Windchill:Wind:
Aussen-T/F 226 29-04-2019 09:00:00 4.99167 C 6.59 g/m*3 4.99 C 4.13333 km/h
227 29-04-2019 10:00:00 6.51667 C 7.15 g/m*3 6.52 C 2.4 km/h
228 29-04-2019 11:00:00 8.7 C 7.85 g/m*3 8.7 C 2.4 km/h
229 29-04-2019 12:00:00 11.925 C 8.18 g/m*3 11.93 C 5.48333 km/h
230 29-04-2019 13:00:00 13.975 C 7.63 g/m*3 13.98 C 9.025 km/h
231 29-04-2019 14:00:00 14.83333 C 7.25 g/m*3 14.83 C 9.69167 km/h
232 29-04-2019 15:00:00 15.29167 C 7.35 g/m*3 15.29 C 9.68333 km/h
233 29-04-2019 16:00:00 15.31667 C 7.23 g/m*3 15.32 C 11.43333 km/h
234 29-04-2019 17:00:00 15.31667 C 7.29 g/m*3 15.32 C 11.7 km/h
235 29-04-2019 18:00:00 13.69167 C 8.13 g/m*3 13.69 C 7.26667 km/h
236 29-04-2019 19:00:00 11.075 C 8.86 g/m*3 11.08 C 1.2 km/h
237 29-04-2019 20:00:00 10.25 C 8.74 g/m*3 10.25 C 0 km/h
238 29-04-2019 21:00:00 10.13333 C 8.75 g/m*3 10.13 C 0.4 km/h
239 29-04-2019 22:00:00 10.25833 C 8.76 g/m*3 10.26 C 2.675 km/h
240 29-04-2019 23:00:00 10.65833 C 8.78 g/m*3 10.66 C 1.73333 km/h
241 30-04-2019 00:00:00 10.98333 C 8.73 g/m*3 10.98 C 3.48333 km/h
242 30-04-2019 01:00:00 11.16667 C 8.72 g/m*3 11.17 C 5.09167 km/h
243 30-04-2019 02:00:00 10.85 C 8.73 g/m*3 10.85 C 4.01667 km/h
244 30-04-2019 03:00:00 10.59167 C 8.68 g/m*3 10.59 C 2.94167 km/h
245 30-04-2019 04:00:00 10.30833 C 8.52 g/m*3 10.31 C 2.275 km/h
246 30-04-2019 05:00:00 10.18333 C 8.37 g/m*3 9.9 C 5.225 km/h
247 30-04-2019 06:00:00 10.05833 C 8.38 g/m*3 10.06 C 3.89167 km/h
248 30-04-2019 07:00:00 10.075 C 8.38 g/m*3 9.62 C 5.775 km/h
249 30-04-2019 08:00:00 10.725 C 8.26 g/m*3 9.87 C 7.925 km/h
250 30-04-2019 09:00:00 11.51667 C 7.94 g/m*3 11.52 C 10.225 km/h
Sensor: Nr:Datum:Temp:Abs-Feuchte:Windchill:Wind:
Aussen-T/F 251 30-04-2019 10:00:00 12.61667 C 7.76 g/m*3 12.62 C 10.76667 km/h
252 30-04-2019 11:00:00 13.60833 C 7.39 g/m*3 13.61 C 10.34167 km/h
253 30-04-2019 12:00:00 14.5 C 7.26 g/m*3 14.5 C 12.225 km/h
254 30-04-2019 13:00:00 15.65833 C 7.11 g/m*3 15.66 C 11.29167 km/h
255 30-04-2019 14:00:00 16.86667 C 6.96 g/m*3 16.87 C 10.35 km/h
256 30-04-2019 15:00:00 18.59167 C 7.21 g/m*3 18.59 C 12.9 km/h
257 30-04-2019 16:00:00 20.025 C 7.07 g/m*3 20.02 C 12.23333 km/h
258 30-04-2019 17:00:00 20.46667 C 7.37 g/m*3 20.47 C 11.425 km/h
259 30-04-2019 18:00:00 20.24167 C 7.51 g/m*3 20.24 C 10.075 km/h
260 30-04-2019 19:00:00 18.90833 C 7.92 g/m*3 18.91 C 10.09167 km/h
261 30-04-2019 20:00:00 16.95833 C 8.22 g/m*3 16.96 C 6.96667 km/h
262 30-04-2019 21:00:00 15.48333 C 8.56 g/m*3 15.48 C 5.625 km/h
263 30-04-2019 22:00:00 14.225 C 8.66 g/m*3 14.23 C 7.925 km/h
264 30-04-2019 23:00:00 12.65833 C 8.65 g/m*3 12.66 C 2.81667 km/h
265 01-05-2019 00:00:00 11.25833 C 8.45 g/m*3 11.26 C 0.8 km/h
266 01-05-2019 01:00:00 10.36667 C 8.22 g/m*3 10.37 C 0.66667 km/h
267 01-05-2019 02:00:00 9.26667 C 7.91 g/m*3 9.27 C 0 km/h
268 01-05-2019 03:00:00 8.45833 C 7.73 g/m*3 8.46 C 0.13333 km/h
269 01-05-2019 04:00:00 8.075 C 7.62 g/m*3 8.07 C 0.4 km/h
270 01-05-2019 05:00:00 6.95833 C 7.13 g/m*3 6.96 C 0 km/h
271 01-05-2019 06:00:00 6.275 C 6.92 g/m*3 6.28 C 0.13333 km/h
272 01-05-2019 07:00:00 6.79167 C 7.26 g/m*3 6.79 C 0.53333 km/h
273 01-05-2019 08:00:00 7.9 C 7.79 g/m*3 7.9 C 0.8 km/h
274 01-05-2019 09:00:00 8.89167 C 8.14 g/m*3 8.89 C 1.46667 km/h
275 01-05-2019 10:00:00 10.11667 C 8.5 g/m*3 10.12 C 3.06667 km/h
Sensor: Nr:Datum:Temp:Abs-Feuchte:Windchill:Wind:
Aussen-T/F 276 01-05-2019 11:00:00 11.40833 C 8.86 g/m*3 11.41 C 3.06667 km/h
277 01-05-2019 12:00:00 13.80833 C 9.43 g/m*3 13.81 C 4.40833 km/h
278 01-05-2019 13:00:00 16.03333 C 9.07 g/m*3 16.03 C 7.54167 km/h
279 01-05-2019 14:00:00 17.69167 C 8.31 g/m*3 17.69 C 9.15833 km/h
280 01-05-2019 15:00:00 19.35 C 8.11 g/m*3 19.35 C 9.40833 km/h
281 01-05-2019 16:00:00 21.31667 C 8.18 g/m*3 21.32 C 7.40833 km/h
282 01-05-2019 17:00:00 21.48333 C 8.34 g/m*3 21.48 C 8.05833 km/h
283 01-05-2019 18:00:00 20.325 C 9.25 g/m*3 20.33 C 10.225 km/h
284 01-05-2019 19:00:00 18.21667 C 9.06 g/m*3 18.22 C 7.65833 km/h
285 01-05-2019 20:00:00 15.65833 C 8.45 g/m*3 15.66 C 3.475 km/h
286 01-05-2019 21:00:00 13.53333 C 8.59 g/m*3 13.53 C 5.90833 km/h
287 01-05-2019 22:00:00 12.76667 C 8.71 g/m*3 12.77 C 2.81667 km/h
288 01-05-2019 23:00:00 10.80833 C 8.45 g/m*3 10.81 C 0 km/h
289 02-05-2019 00:00:00 9.98333 C 8.29 g/m*3 9.98 C 0 km/h
290 02-05-2019 01:00:00 8.96667 C 7.95 g/m*3 8.97 C 0 km/h
291 02-05-2019 02:00:00 8.23333 C 7.78 g/m*3 8.23 C 0 km/h
292 02-05-2019 03:00:00 7.73333 C 7.6 g/m*3 7.73 C 0 km/h
293 02-05-2019 04:00:00 7.025 C 7.3 g/m*3 7.03 C 0 km/h
294 02-05-2019 05:00:00 6.325 C 6.99 g/m*3 6.33 C 0 km/h
295 02-05-2019 06:00:00 5.89167 C 6.85 g/m*3 5.89 C 0 km/h
296 02-05-2019 07:00:00 6.84167 C 7.36 g/m*3 6.84 C 0.8 km/h
297 02-05-2019 08:00:00 8.325 C 8.08 g/m*3 8.32 C 2.13333 km/h
298 02-05-2019 09:00:00 9.075 C 8.18 g/m*3 9.07 C 1.73333 km/h
299 02-05-2019 10:00:00 10.725 C 8.12 g/m*3 10.73 C 3.2 km/h
300 02-05-2019 11:00:00 12.15833 C 8.24 g/m*3 12.16 C 5.21667 km/h
Sensor: Nr:Datum:Temp:Abs-Feuchte:Windchill:Wind:
Aussen-T/F 301 02-05-2019 12:00:00 12.925 C 8.35 g/m*3 12.93 C 6.98333 km/h
302 02-05-2019 13:00:00 14.15 C 8.46 g/m*3 14.15 C 7.25833 km/h
303 02-05-2019 14:00:00 15.85 C 8.81 g/m*3 15.85 C 6.96667 km/h
304 02-05-2019 15:00:00 16.58333 C 8.62 g/m*3 16.58 C 9.69167 km/h
305 02-05-2019 16:00:00 17.225 C 8.51 g/m*3 17.23 C 8.86667 km/h
306 02-05-2019 17:00:00 17.75 C 7.79 g/m*3 17.75 C 9.28333 km/h
307 02-05-2019 18:00:00 17.96667 C 7.18 g/m*3 17.97 C 9.425 km/h
308 02-05-2019 19:00:00 15.54167 C 7.98 g/m*3 15.54 C 12.9 km/h
309 02-05-2019 20:00:00 12.78333 C 8.61 g/m*3 12.78 C 8.175 km/h
310 02-05-2019 21:00:00 11.44167 C 9.11 g/m*3 11.44 C 0.4 km/h
311 02-05-2019 22:00:00 10.75833 C 8.96 g/m*3 10.76 C 2.93333 km/h
312 02-05-2019 23:00:00 10.7 C 9.01 g/m*3 10.7 C 0.53333 km/h
313 03-05-2019 00:00:00 10.6 C 9.01 g/m*3 10.6 C 2.93333 km/h
314 03-05-2019 01:00:00 10.51667 C 8.41 g/m*3 9.44 C 8.88333 km/h
315 03-05-2019 02:00:00 9.85 C 7.83 g/m*3 9.32 C 5.91667 km/h
316 03-05-2019 03:00:00 9.375 C 7.74 g/m*3 9.38 C 2.675 km/h
317 03-05-2019 04:00:00 9.16667 C 7.81 g/m*3 9.17 C 0.53333 km/h
318 03-05-2019 05:00:00 9.28333 C 7.9 g/m*3 9.28 C 3.46667 km/h
319 03-05-2019 06:00:00 9.25 C 7.86 g/m*3 9.25 C 3.475 km/h
320 03-05-2019 07:00:00 9.25 C 7.67 g/m*3 8.71 C 5.63333 km/h
321 03-05-2019 08:00:00 9.65833 C 7.68 g/m*3 9.14 C 5.76667 km/h
322 03-05-2019 09:00:00 10.10833 C 7.52 g/m*3 8.86 C 9.425 km/h
323 03-05-2019 10:00:00 10.78333 C 7.28 g/m*3 9.39 C 11.15833 km/h
324 03-05-2019 11:00:00 11.16667 C 6.99 g/m*3 11.17 C 10.625 km/h
325 03-05-2019 12:00:00 11.34167 C 7.05 g/m*3 11.34 C 8.61667 km/h
Sensor: Nr:Datum:Temp:Abs-Feuchte:Windchill:Wind:
Aussen-T/F 326 03-05-2019 13:00:00 12.075 C 7.02 g/m*3 12.08 C 9.95 km/h
327 03-05-2019 14:00:00 12.98333 C 6.74 g/m*3 12.98 C 14.9 km/h
328 03-05-2019 15:00:00 14.38333 C 6.53 g/m*3 14.38 C 15.03333 km/h
329 03-05-2019 16:00:00 15 C 6.54 g/m*3 15 C 13.16667 km/h
330 03-05-2019 17:00:00 14.125 C 6.55 g/m*3 14.13 C 13.56667 km/h
331 03-05-2019 18:00:00 13.64167 C 6.65 g/m*3 13.64 C 10.225 km/h
332 03-05-2019 19:00:00 12.4 C 6.56 g/m*3 12.4 C 8.06667 km/h
333 03-05-2019 20:00:00 11.18333 C 6.51 g/m*3 11.18 C 7.25 km/h
334 03-05-2019 21:00:00 9.875 C 6.54 g/m*3 9.88 C 4.81667 km/h
335 03-05-2019 22:00:00 9.375 C 6.71 g/m*3 9.38 C 3.075 km/h
336 03-05-2019 23:00:00 8.65833 C 6.78 g/m*3 8.66 C 0.8 km/h
337 04-05-2019 00:00:00 8.05833 C 6.78 g/m*3 8.06 C 0 km/h
338 04-05-2019 01:00:00 7.625 C 6.71 g/m*3 7.63 C 0 km/h
339 04-05-2019 02:00:00 7.575 C 6.82 g/m*3 7.58 C 0 km/h
340 04-05-2019 03:00:00 7.43333 C 6.91 g/m*3 7.43 C 0 km/h
341 04-05-2019 04:00:00 7.4 C 7.16 g/m*3 6.28 C 6.7 km/h
342 04-05-2019 05:00:00 5.025 C 6.22 g/m*3 2.08 C 13.16667 km/h
343 04-05-2019 06:00:00 3.74167 C 5.77 g/m*3 1.07 C 10.36667 km/h
344 04-05-2019 07:00:00 3.23333 C 5.62 g/m*3 1.54 C 6.425 km/h
345 04-05-2019 08:00:00 3.26667 C 5.68 g/m*3 2.08 C 5.08333 km/h
346 04-05-2019 09:00:00 3.99167 C 5.97 g/m*3 3.99 C 3.74167 km/h
347 04-05-2019 10:00:00 4.64167 C 6.04 g/m*3 2.92 C 7.25 km/h
348 04-05-2019 11:00:00 5.00833 C 6.06 g/m*3 3.16 C 7.93333 km/h
349 04-05-2019 12:00:00 5.93333 C 6.19 g/m*3 4.05 C 8.75 km/h
350 04-05-2019 13:00:00 7.25833 C 6.17 g/m*3 5.59 C 8.88333 km/h
Sensor: Nr:Datum:Temp:Abs-Feuchte:Windchill:Wind:
Aussen-T/F 351 04-05-2019 14:00:00 7.44167 C 6.19 g/m*3 4.75 C 15.04167 km/h
352 04-05-2019 15:00:00 4.74167 C 5.96 g/m*3 3.2 C 6.70833 km/h
353 04-05-2019 16:00:00 7.80833 C 6.95 g/m*3 6.87 C 6.3 km/h
354 04-05-2019 17:00:00 10.13333 C 7.32 g/m*3 9.42 C 6.85 km/h
355 04-05-2019 18:00:00 10.36667 C 5.83 g/m*3 8.33 C 15.3 km/h
356 04-05-2019 19:00:00 9.3 C 6.04 g/m*3 7.26 C 13.43333 km/h
357 04-05-2019 20:00:00 7.475 C 5.99 g/m*3 6.81 C 5.23333 km/h
358 04-05-2019 21:00:00 6.49167 C 5.93 g/m*3 5.52 C 5.75833 km/h
359 04-05-2019 22:00:00 5.00833 C 5.78 g/m*3 5.01 C 3.48333 km/h
360 04-05-2019 23:00:00 3.8 C 5.63 g/m*3 3.8 C 2.94167 km/h
361 05-05-2019 00:00:00 3.71667 C 5.72 g/m*3 3.72 C 2.14167 km/h
362 05-05-2019 01:00:00 3.80833 C 5.82 g/m*3 3.81 C 0.53333 km/h
363 05-05-2019 02:00:00 3.45833 C 5.68 g/m*3 3.46 C 0.8 km/h
364 05-05-2019 03:00:00 3.68333 C 5.84 g/m*3 3.68 C 1.06667 km/h
365 05-05-2019 04:00:00 3.69167 C 5.78 g/m*3 3.69 C 2.8 km/h
366 05-05-2019 05:00:00 3.33333 C 5.59 g/m*3 3.33 C 3.625 km/h
367 05-05-2019 06:00:00 2.73333 C 5.38 g/m*3 2.73 C 0.4 km/h
368 05-05-2019 07:00:00 2.46667 C 5.35 g/m*3 2.47 C 0.26667 km/h
369 05-05-2019 08:00:00 3.35833 C 5.73 g/m*3 2.03 C 5.475 km/h
370 05-05-2019 09:00:00 4.73333 C 6.07 g/m*3 4.73 C 4.28333 km/h
371 05-05-2019 10:00:00 5.84167 C 6.21 g/m*3 4.64 C 6.175 km/h
372 05-05-2019 11:00:00 6.98333 C 6.46 g/m*3 5.66 C 7.23333 km/h
373 05-05-2019 12:00:00 7.63333 C 6.51 g/m*3 6.25 C 7.90833 km/h
374 05-05-2019 13:00:00 8.91667 C 6.42 g/m*3 7.45 C 9.4 km/h
375 05-05-2019 14:00:00 9.29167 C 6.35 g/m*3 7.42 C 12.23333 km/h
Sensor: Nr:Datum:Temp:Abs-Feuchte:Windchill:Wind:
Aussen-T/F 376 05-05-2019 15:00:00 9.86667 C 6.42 g/m*3 9.2 C 6.44167 km/h
377 05-05-2019 16:00:00 12.39167 C 6.29 g/m*3 12.39 C 12.5 km/h
378 05-05-2019 17:00:00 12.55833 C 6.48 g/m*3 12.56 C 11.83333 km/h
379 05-05-2019 18:00:00 11.3 C 6.59 g/m*3 11.3 C 10.75 km/h
380 05-05-2019 19:00:00 9.66667 C 6.45 g/m*3 8.75 C 7.39167 km/h
381 05-05-2019 20:00:00 9.19167 C 6.42 g/m*3 8.08 C 7.90833 km/h
382 05-05-2019 21:00:00 8.26667 C 6.4 g/m*3 7.76 C 5.075 km/h
383 05-05-2019 22:00:00 7.15 C 6.27 g/m*3 7.15 C 2.54167 km/h
384 05-05-2019 23:00:00 6.25 C 6.3 g/m*3 6.25 C 0.4 km/h
385 06-05-2019 00:00:00 6.11667 C 6.33 g/m*3 6.12 C 0.26667 km/h
386 06-05-2019 01:00:00 5.90833 C 6.32 g/m*3 5.91 C 2 km/h
387 06-05-2019 02:00:00 5.1 C 6.01 g/m*3 5.1 C 1.6 km/h
388 06-05-2019 03:00:00 4.25833 C 5.85 g/m*3 4.26 C 0.26667 km/h
389 06-05-2019 04:00:00 3.59167 C 5.65 g/m*3 3.59 C 0 km/h
390 06-05-2019 05:00:00 3.01667 C 5.5 g/m*3 3.02 C 0.4 km/h
391 06-05-2019 06:00:00 3.14167 C 5.63 g/m*3 3.14 C 2 km/h
392 06-05-2019 07:00:00 3.70833 C 5.86 g/m*3 3.71 C 4.81667 km/h
393 06-05-2019 08:00:00 4.56667 C 6.1 g/m*3 4.57 C 4 km/h
394 06-05-2019 09:00:00 6.31667 C 6.24 g/m*3 6.32 C 4.275 km/h
395 06-05-2019 10:00:00 8.01667 C 6.11 g/m*3 7.18 C 6.04167 km/h
396 06-05-2019 11:00:00 9.33333 C 6.01 g/m*3 9.33 C 4.275 km/h
397 06-05-2019 12:00:00 10.05 C 5.61 g/m*3 9.29 C 6.975 km/h
398 06-05-2019 13:00:00 10.95 C 5.6 g/m*3 9.96 C 8.86667 km/h
399 06-05-2019 14:00:00 11.24167 C 5.59 g/m*3 11.24 C 9.26667 km/h
400 06-05-2019 15:00:00 11.29167 C 5.83 g/m*3 11.29 C 9.15833 km/h
Sensor: Nr:Datum:Temp:Abs-Feuchte:Windchill:Wind:
Aussen-T/F 401 06-05-2019 16:00:00 11.01667 C 6.05 g/m*3 11.02 C 9.14167 km/h
402 06-05-2019 17:00:00 10.675 C 6 g/m*3 10.35 C 5.61667 km/h
403 06-05-2019 18:00:00 11.425 C 6.3 g/m*3 11.43 C 4.275 km/h
404 06-05-2019 19:00:00 10.75833 C 6.73 g/m*3 10.76 C 1.60833 km/h
405 06-05-2019 20:00:00 9.18333 C 6.73 g/m*3 9.18 C 3.48333 km/h
406 06-05-2019 21:00:00 8.26667 C 6.9 g/m*3 8.27 C 0.13333 km/h
407 06-05-2019 22:00:00 7.75 C 6.96 g/m*3 7.75 C 0.26667 km/h
408 06-05-2019 23:00:00 7.30833 C 6.86 g/m*3 7.31 C 0 km/h
409 07-05-2019 00:00:00 7.29167 C 6.99 g/m*3 7.29 C 0.26667 km/h
410 07-05-2019 01:00:00 7.04167 C 6.93 g/m*3 7.04 C 0 km/h
411 07-05-2019 02:00:00 6.7 C 6.84 g/m*3 6.7 C 0 km/h
412 07-05-2019 03:00:00 6.64167 C 6.81 g/m*3 6.64 C 0 km/h
413 07-05-2019 04:00:00 6.35 C 6.7 g/m*3 6.35 C 0 km/h
414 07-05-2019 05:00:00 6.16667 C 6.68 g/m*3 6.17 C 0 km/h
415 07-05-2019 06:00:00 5.85833 C 6.57 g/m*3 5.86 C 0 km/h
416 07-05-2019 07:00:00 6.38333 C 6.85 g/m*3 6.38 C 0 km/h
417 07-05-2019 08:00:00 7.30833 C 7.06 g/m*3 7.31 C 0.26667 km/h
418 07-05-2019 09:00:00 8.475 C 7.31 g/m*3 8.48 C 1.6 km/h
419 07-05-2019 10:00:00 9.60833 C 7.32 g/m*3 9.13 C 5.6 km/h
420 07-05-2019 11:00:00 10.575 C 6.99 g/m*3 10.58 C 4.53333 km/h
421 07-05-2019 12:00:00 11.88333 C 6.4 g/m*3 11.88 C 7.11667 km/h
422 07-05-2019 13:00:00 11.86667 C 6.2 g/m*3 11.87 C 6.14167 km/h
423 07-05-2019 14:00:00 12.76667 C 6.17 g/m*3 12.77 C 6.83333 km/h
424 07-05-2019 15:00:00 13.05833 C 5.99 g/m*3 13.06 C 9.81667 km/h
425 07-05-2019 16:00:00 14.13333 C 6.16 g/m*3 14.13 C 6.71667 km/h
Sensor: Nr:Datum:Temp:Abs-Feuchte:Windchill:Wind:
Aussen-T/F 426 07-05-2019 17:00:00 14.9 C 6.04 g/m*3 14.9 C 5.49167 km/h
427 07-05-2019 18:00:00 14.94167 C 5.88 g/m*3 14.94 C 5.75 km/h
428 07-05-2019 19:00:00 13.4 C 7.19 g/m*3 13.4 C 0.13333 km/h
429 07-05-2019 20:00:00 11.275 C 6.41 g/m*3 11.28 C 0.8 km/h
430 07-05-2019 21:00:00 9.01667 C 6.03 g/m*3 9.02 C 0 km/h
431 07-05-2019 22:00:00 7.98333 C 6.27 g/m*3 7.98 C 0 km/h
432 07-05-2019 23:00:00 6.93333 C 6.23 g/m*3 6.93 C 0 km/h
433 08-05-2019 00:00:00 6.325 C 6.15 g/m*3 6.33 C 0 km/h
434 08-05-2019 01:00:00 5.75 C 6.03 g/m*3 5.75 C 0 km/h
435 08-05-2019 02:00:00 5.15 C 5.97 g/m*3 5.15 C 0 km/h
436 08-05-2019 03:00:00 4.7 C 5.96 g/m*3 4.7 C 0 km/h
437 08-05-2019 04:00:00 4.95 C 6.16 g/m*3 4.95 C 0 km/h
438 08-05-2019 05:00:00 5.25 C 6.29 g/m*3 5.25 C 0 km/h
439 08-05-2019 06:00:00 5.49167 C 6.41 g/m*3 5.49 C 0 km/h
440 08-05-2019 07:00:00 6.21667 C 6.66 g/m*3 6.22 C 0.53333 km/h
441 08-05-2019 08:00:00 7.49167 C 7.03 g/m*3 7.49 C 2 km/h
442 08-05-2019 09:00:00 8.85 C 7.21 g/m*3 8.85 C 3.48333 km/h
443 08-05-2019 10:00:00 9.025 C 7.7 g/m*3 9.03 C 1.46667 km/h
444 08-05-2019 11:00:00 9.69167 C 8.24 g/m*3 9.69 C 0.8 km/h
445 08-05-2019 12:00:00 11.325 C 9.05 g/m*3 11.33 C 4.41667 km/h
446 08-05-2019 13:00:00 13.61667 C 9.77 g/m*3 13.62 C 5.89167 km/h
447 08-05-2019 14:00:00 14.7 C 9.91 g/m*3 14.7 C 5.875 km/h
448 08-05-2019 15:00:00 14.56667 C 9.86 g/m*3 14.57 C 5.35 km/h
449 08-05-2019 16:00:00 13.39167 C 10.08 g/m*3 13.39 C 5.35 km/h
450 08-05-2019 17:00:00 12.51667 C 10.05 g/m*3 12.52 C 3.06667 km/h
Sensor: Nr:Datum:Temp:Abs-Feuchte:Windchill:Wind:
Aussen-T/F 451 08-05-2019 18:00:00 12.5 C 10.22 g/m*3 12.5 C 2 km/h
452 08-05-2019 19:00:00 12.25833 C 10.13 g/m*3 12.26 C 0.13333 km/h
453 08-05-2019 20:00:00 11.71667 C 9.84 g/m*3 11.72 C 0.4 km/h
454 08-05-2019 21:00:00 10.95833 C 9.43 g/m*3 10.96 C 0.13333 km/h
455 08-05-2019 22:00:00 10.14167 C 9 g/m*3 10.14 C 1.6 km/h
456 08-05-2019 23:00:00 9.41667 C 8.56 g/m*3 9.42 C 2.53333 km/h
457 09-05-2019 00:00:00 8.78333 C 8.22 g/m*3 8.78 C 3.48333 km/h
458 09-05-2019 01:00:00 8.31667 C 7.99 g/m*3 8.32 C 1.6 km/h
459 09-05-2019 02:00:00 7.425 C 7.55 g/m*3 7.43 C 0.13333 km/h
460 09-05-2019 03:00:00 7.31667 C 7.57 g/m*3 7.32 C 0.26667 km/h
461 09-05-2019 04:00:00 7.75833 C 7.81 g/m*3 7.76 C 1.475 km/h
462 09-05-2019 05:00:00 7.80833 C 7.84 g/m*3 7.81 C 0 km/h
463 09-05-2019 06:00:00 7.46667 C 7.63 g/m*3 7.47 C 0 km/h
464 09-05-2019 07:00:00 8.7 C 8.33 g/m*3 8.7 C 0.13333 km/h
465 09-05-2019 08:00:00 9.9 C 8.72 g/m*3 9.9 C 2.4 km/h
466 09-05-2019 09:00:00 11.4 C 8.97 g/m*3 11.4 C 2.8 km/h
467 09-05-2019 10:00:00 11.6 C 9.17 g/m*3 11.6 C 5.475 km/h
468 09-05-2019 11:00:00 12.78333 C 9.4 g/m*3 12.78 C 6.56667 km/h
469 09-05-2019 12:00:00 13.21667 C 9.7 g/m*3 13.22 C 6.43333 km/h
470 09-05-2019 13:00:00 13.26667 C 9.67 g/m*3 13.27 C 8.60833 km/h
471 09-05-2019 14:00:00 13.60833 C 9.43 g/m*3 13.61 C 5.35 km/h
472 09-05-2019 15:00:00 13.43333 C 9.64 g/m*3 13.43 C 4.80833 km/h
473 09-05-2019 16:00:00 13.80833 C 9.68 g/m*3 13.81 C 4.4 km/h
474 09-05-2019 17:00:00 14.375 C 10.05 g/m*3 14.38 C 2.66667 km/h
475 09-05-2019 18:00:00 15.625 C 10.57 g/m*3 15.63 C 5.76667 km/h
Sensor: Nr:Datum:Temp:Abs-Feuchte:Windchill:Wind:
Aussen-T/F 476 09-05-2019 19:00:00 15.4 C 10.41 g/m*3 15.4 C 3.89167 km/h
477 09-05-2019 20:00:00 13.70833 C 10.14 g/m*3 13.71 C 0.93333 km/h
478 09-05-2019 21:00:00 11.66667 C 9.47 g/m*3 11.67 C 7.09167 km/h
479 09-05-2019 22:00:00 10.89167 C 9.36 g/m*3 10.89 C 1.86667 km/h
480 09-05-2019 23:00:00 10.76667 C 9.37 g/m*3 10.77 C 3.88333 km/h
481 10-05-2019 00:00:00 10.525 C 9.23 g/m*3 10.53 C 1.2 km/h
482 10-05-2019 01:00:00 9.51667 C 8.66 g/m*3 9.52 C 0.26667 km/h
483 10-05-2019 02:00:00 8.85833 C 8.34 g/m*3 8.86 C 0.13333 km/h
484 10-05-2019 03:00:00 8.16667 C 7.97 g/m*3 8.17 C 0 km/h
485 10-05-2019 04:00:00 8.56667 C 8.25 g/m*3 8.57 C 0 km/h
486 10-05-2019 05:00:00 8.28333 C 8.08 g/m*3 7.49 C 6.03333 km/h
487 10-05-2019 06:00:00 8.40833 C 8.15 g/m*3 7.63 C 6.03333 km/h
488 10-05-2019 07:00:00 8.75 C 8.29 g/m*3 8.75 C 2.675 km/h
489 10-05-2019 08:00:00 9.175 C 8.39 g/m*3 8.71 C 5.36667 km/h
490 10-05-2019 09:00:00 10.7 C 8.59 g/m*3 9.13 C 12.225 km/h
491 10-05-2019 10:00:00 12.1 C 8.73 g/m*3 12.1 C 11.03333 km/h
492 10-05-2019 11:00:00 13.23333 C 8.72 g/m*3 13.23 C 11.025 km/h
493 10-05-2019 12:00:00 14.35 C 8.31 g/m*3 14.35 C 12.9 km/h
494 10-05-2019 13:00:00 15.44167 C 7.9 g/m*3 15.44 C 12.23333 km/h
495 10-05-2019 14:00:00 16.75 C 7.76 g/m*3 16.75 C 13.83333 km/h
496 10-05-2019 15:00:00 17.21667 C 7.7 g/m*3 17.22 C 10.9 km/h
497 10-05-2019 16:00:00 17.93333 C 7.55 g/m*3 17.93 C 8.05 km/h
498 10-05-2019 17:00:00 17.6 C 7.32 g/m*3 17.6 C 9.80833 km/h
499 10-05-2019 18:00:00 17.25 C 7.43 g/m*3 17.25 C 5.36667 km/h
500 10-05-2019 19:00:00 17.18333 C 9.07 g/m*3 17.18 C 0.66667 km/h
Sensor: Nr:Datum:Temp:Abs-Feuchte:Windchill:Wind:
Aussen-T/F 501 10-05-2019 20:00:00 14.175 C 8.72 g/m*3 14.18 C 0 km/h
502 10-05-2019 21:00:00 12.35 C 8.43 g/m*3 12.35 C 0 km/h
503 10-05-2019 22:00:00 11.76667 C 8.54 g/m*3 11.77 C 0 km/h
504 10-05-2019 23:00:00 11.53333 C 8.62 g/m*3 11.53 C 0 km/h
505 11-05-2019 00:00:00 11.04167 C 8.69 g/m*3 11.04 C 0.4 km/h
506 11-05-2019 01:00:00 10.36667 C 8.77 g/m*3 10.37 C 0.13333 km/h
507 11-05-2019 02:00:00 10.1 C 8.83 g/m*3 10.1 C 0 km/h
508 11-05-2019 03:00:00 9.925 C 8.81 g/m*3 9.93 C 0.13333 km/h
509 11-05-2019 04:00:00 9.7 C 8.76 g/m*3 9.7 C 0 km/h
510 11-05-2019 05:00:00 9.775 C 8.87 g/m*3 9.78 C 0.26667 km/h
511 11-05-2019 06:00:00 9.7 C 8.85 g/m*3 9.7 C 0.26667 km/h
512 11-05-2019 07:00:00 9.7 C 8.85 g/m*3 9.7 C 0.4 km/h
513 11-05-2019 08:00:00 9.65833 C 8.83 g/m*3 9.66 C 2.80833 km/h
514 11-05-2019 09:00:00 9.70833 C 8.85 g/m*3 9.71 C 4.95 km/h
515 11-05-2019 10:00:00 9.85833 C 8.94 g/m*3 9.49 C 5.35 km/h
516 11-05-2019 11:00:00 10.13333 C 9.1 g/m*3 10.13 C 4.95 km/h
517 11-05-2019 12:00:00 10.36667 C 9.1 g/m*3 9.27 C 8.875 km/h
518 11-05-2019 13:00:00 9.79167 C 8.72 g/m*3 8.61 C 8.73333 km/h
519 11-05-2019 14:00:00 9.76667 C 8.79 g/m*3 9.77 C 1.86667 km/h
520 11-05-2019 15:00:00 9.91667 C 8.88 g/m*3 9.92 C 3.475 km/h
521 11-05-2019 16:00:00 10.31667 C 9.2 g/m*3 10.32 C 1.6 km/h
522 11-05-2019 17:00:00 10.95833 C 9.53 g/m*3 10.96 C 2.94167 km/h
523 11-05-2019 18:00:00 11.79167 C 9.33 g/m*3 11.79 C 11.96667 km/h
524 11-05-2019 19:00:00 12.1 C 8.75 g/m*3 12.1 C 14.36667 km/h
525 11-05-2019 20:00:00 11.3 C 8.59 g/m*3 11.3 C 3.89167 km/h
Sensor: Nr:Datum:Temp:Abs-Feuchte:Windchill:Wind:
Aussen-T/F 526 11-05-2019 21:00:00 9.44167 C 8.27 g/m*3 9.44 C 0 km/h
527 11-05-2019 22:00:00 8.33333 C 7.84 g/m*3 8.33 C 0 km/h
528 11-05-2019 23:00:00 7.65 C 7.62 g/m*3 7.65 C 0 km/h
529 12-05-2019 00:00:00 7.41667 C 7.56 g/m*3 7.42 C 0.4 km/h
530 12-05-2019 01:00:00 6.75 C 7.24 g/m*3 6.75 C 1.46667 km/h
531 12-05-2019 02:00:00 6.43333 C 7 g/m*3 6.43 C 3.86667 km/h
532 12-05-2019 03:00:00 5.66667 C 6.6 g/m*3 5.67 C 1.46667 km/h
533 12-05-2019 04:00:00 4.70833 C 6.25 g/m*3 4.71 C 0.13333 km/h
534 12-05-2019 05:00:00 4.225 C 6.11 g/m*3 4.22 C 0 km/h
535 12-05-2019 06:00:00 4.45833 C 6.23 g/m*3 4.46 C 0.93333 km/h
536 12-05-2019 07:00:00 5.68333 C 6.53 g/m*3 4.77 C 5.225 km/h
537 12-05-2019 08:00:00 6.98333 C 6.62 g/m*3 5.69 C 7.1 km/h
538 12-05-2019 09:00:00 8.125 C 6.56 g/m*3 6.03 C 12.09167 km/h
539 12-05-2019 10:00:00 8.83333 C 6.48 g/m*3 6.89 C 12.1 km/h
540 12-05-2019 11:00:00 9.58333 C 6.35 g/m*3 7.68 C 12.89167 km/h
541 12-05-2019 12:00:00 10.54167 C 6.3 g/m*3 9.07 C 11.3 km/h
542 12-05-2019 13:00:00 11.66667 C 6.28 g/m*3 11.67 C 12.76667 km/h
543 12-05-2019 14:00:00 12.83333 C 6.15 g/m*3 12.83 C 12.1 km/h
544 12-05-2019 15:00:00 14.13333 C 6.19 g/m*3 14.13 C 12.76667 km/h
545 12-05-2019 16:00:00 15.25833 C 5.99 g/m*3 15.26 C 12.23333 km/h
546 12-05-2019 17:00:00 14.83333 C 5.78 g/m*3 14.83 C 11.43333 km/h
547 12-05-2019 18:00:00 15.19167 C 5.65 g/m*3 15.19 C 14.1 km/h
548 12-05-2019 19:00:00 13.96667 C 5.43 g/m*3 13.97 C 12.35833 km/h
549 12-05-2019 20:00:00 13.09167 C 5.62 g/m*3 13.09 C 5.775 km/h
550 12-05-2019 21:00:00 9.68333 C 6.57 g/m*3 9.68 C 0.66667 km/h
Sensor: Nr:Datum:Temp:Abs-Feuchte:Windchill:Wind:
Aussen-T/F 551 12-05-2019 22:00:00 8.375 C 6.5 g/m*3 8.38 C 0.26667 km/h
552 12-05-2019 23:00:00 7.30833 C 6.21 g/m*3 7.31 C 0.53333 km/h
553 13-05-2019 00:00:00 6.45 C 6.14 g/m*3 6.45 C 0 km/h
554 13-05-2019 01:00:00 5.11667 C 6 g/m*3 5.12 C 0 km/h
555 13-05-2019 02:00:00 4.15 C 5.82 g/m*3 4.15 C 0 km/h
556 13-05-2019 03:00:00 3.60833 C 5.71 g/m*3 3.61 C 0 km/h
557 13-05-2019 04:00:00 3.075 C 5.57 g/m*3 3.08 C 0.13333 km/h
558 13-05-2019 05:00:00 2.64167 C 5.46 g/m*3 2.64 C 0.13333 km/h
559 13-05-2019 06:00:00 2.30833 C 5.36 g/m*3 2.31 C 0 km/h
560 13-05-2019 07:00:00 2.63333 C 5.52 g/m*3 2.63 C 0 km/h
561 13-05-2019 08:00:00 4.26667 C 6.21 g/m*3 4.27 C 0 km/h
562 13-05-2019 09:00:00 6.13333 C 6.62 g/m*3 6.13 C 0.53333 km/h
563 13-05-2019 10:00:00 9.69167 C 5.33 g/m*3 9.11 C 6.04167 km/h
564 13-05-2019 11:00:00 11.4 C 5 g/m*3 11.4 C 4.54167 km/h
565 13-05-2019 12:00:00 13.43333 C 3.8 g/m*3 13.43 C 15.7 km/h
566 13-05-2019 13:00:00 14.6 C 3.74 g/m*3 14.6 C 12.36667 km/h
567 13-05-2019 14:00:00 15.575 C 4.12 g/m*3 15.58 C 11.025 km/h
568 13-05-2019 15:00:00 17.19167 C 4.33 g/m*3 17.19 C 11.025 km/h
569 13-05-2019 16:00:00 18.43333 C 4.56 g/m*3 18.43 C 15.56667 km/h
570 13-05-2019 17:00:00 18.6 C 4.52 g/m*3 18.6 C 16.1 km/h
571 13-05-2019 18:00:00 18.08333 C 4.45 g/m*3 18.08 C 16.36667 km/h
572 13-05-2019 19:00:00 16.95833 C 4.74 g/m*3 16.96 C 17.03333 km/h
573 13-05-2019 20:00:00 15.41667 C 4.57 g/m*3 15.42 C 12.76667 km/h
574 13-05-2019 21:00:00 12.25 C 5.46 g/m*3 12.25 C 1.74167 km/h
575 13-05-2019 22:00:00 9.325 C 5.48 g/m*3 9.32 C 0.13333 km/h
Sensor: Nr:Datum:Temp:Abs-Feuchte:Windchill:Wind:
Aussen-T/F 576 13-05-2019 23:00:00 7.875 C 5.69 g/m*3 7.88 C 0 km/h
577 14-05-2019 00:00:00 6.7 C 5.69 g/m*3 6.7 C 0 km/h
578 14-05-2019 01:00:00 5.76667 C 5.54 g/m*3 5.77 C 0 km/h
579 14-05-2019 02:00:00 4.74167 C 5.43 g/m*3 4.74 C 0 km/h
580 14-05-2019 03:00:00 3.83333 C 5.32 g/m*3 3.83 C 0 km/h
581 14-05-2019 04:00:00 3.18333 C 5.24 g/m*3 3.18 C 0 km/h
582 14-05-2019 05:00:00 2.66667 C 5.17 g/m*3 2.67 C 0 km/h
583 14-05-2019 06:00:00 2.41667 C 5.19 g/m*3 2.42 C 0 km/h
584 14-05-2019 07:00:00 2.825 C 5.44 g/m*3 2.83 C 0 km/h
585 14-05-2019 08:00:00 4.2 C 5.97 g/m*3 4.2 C 0 km/h
586 14-05-2019 09:00:00 6.50833 C 6.44 g/m*3 6.51 C 1.46667 km/h
587 14-05-2019 10:00:00 9.575 C 6.34 g/m*3 8.9 C 6.30833 km/h
588 14-05-2019 11:00:00 12.65 C 5.64 g/m*3 12.65 C 15.7 km/h
589 14-05-2019 12:00:00 13.45833 C 5.35 g/m*3 13.46 C 13.83333 km/h
590 14-05-2019 13:00:00 14.21667 C 5.35 g/m*3 14.22 C 15.7 km/h
591 14-05-2019 14:00:00 14.79167 C 5.44 g/m*3 14.79 C 15.83333 km/h
592 14-05-2019 15:00:00 16.00833 C 5.43 g/m*3 16.01 C 13.96667 km/h
593 14-05-2019 16:00:00 16.59167 C 5.24 g/m*3 16.59 C 15.69167 km/h
594 14-05-2019 17:00:00 16.8 C 5.21 g/m*3 16.8 C 14.75833 km/h
595 14-05-2019 18:00:00 16.475 C 5.22 g/m*3 16.48 C 9.53333 km/h
596 14-05-2019 19:00:00 16.075 C 5.22 g/m*3 16.08 C 7.50833 km/h
597 14-05-2019 20:00:00 13.73333 C 5.8 g/m*3 13.73 C 4.15833 km/h
598 14-05-2019 21:00:00 10.35 C 5.82 g/m*3 10.35 C 0.53333 km/h
599 14-05-2019 22:00:00 8.73333 C 5.89 g/m*3 8.73 C 0 km/h
600 14-05-2019 23:00:00 7.69167 C 5.83 g/m*3 7.69 C 0 km/h
Sensor: Nr:Datum:Temp:Abs-Feuchte:Windchill:Wind:
Aussen-T/F 601 15-05-2019 00:00:00 6.88333 C 5.65 g/m*3 6.88 C 0 km/h
602 15-05-2019 01:00:00 5.89167 C 5.57 g/m*3 5.89 C 0 km/h
603 15-05-2019 02:00:00 4.74167 C 5.44 g/m*3 4.74 C 0 km/h
604 15-05-2019 03:00:00 3.98333 C 5.37 g/m*3 3.98 C 0 km/h
605 15-05-2019 04:00:00 3.15 C 5.25 g/m*3 3.15 C 0 km/h
606 15-05-2019 05:00:00 2.60833 C 5.15 g/m*3 2.61 C 0 km/h
607 15-05-2019 06:00:00 2.325 C 5.17 g/m*3 2.33 C 0 km/h
608 15-05-2019 07:00:00 2.75833 C 5.41 g/m*3 2.76 C 0 km/h
609 15-05-2019 08:00:00 3.775 C 5.81 g/m*3 3.78 C 0 km/h
610 15-05-2019 09:00:00 5.99167 C 6.19 g/m*3 5.99 C 2.81667 km/h
611 15-05-2019 10:00:00 10.15833 C 5.19 g/m*3 9.15 C 8.19167 km/h
612 15-05-2019 11:00:00 12.05 C 4.88 g/m*3 12.05 C 10.225 km/h
613 15-05-2019 12:00:00 12.95 C 4.63 g/m*3 12.95 C 8.85833 km/h
614 15-05-2019 13:00:00 14.08333 C 4.35 g/m*3 14.08 C 13.56667 km/h
615 15-05-2019 14:00:00 14.95 C 4.75 g/m*3 14.95 C 15.96667 km/h
616 15-05-2019 15:00:00 15.975 C 4.64 g/m*3 15.98 C 17.83333 km/h
617 15-05-2019 16:00:00 17.19167 C 5.03 g/m*3 17.19 C 12.1 km/h
618 15-05-2019 17:00:00 17.58333 C 4.96 g/m*3 17.58 C 14.1 km/h
619 15-05-2019 18:00:00 17.38333 C 5.02 g/m*3 17.38 C 13.55833 km/h
620 15-05-2019 19:00:00 16.55833 C 4.97 g/m*3 16.56 C 11.55 km/h
621 15-05-2019 20:00:00 15.10833 C 5.45 g/m*3 15.11 C 4.69167 km/h
622 15-05-2019 21:00:00 11.45833 C 5.85 g/m*3 11.46 C 1.74167 km/h
623 15-05-2019 22:00:00 9.525 C 5.5 g/m*3 9.53 C 0.53333 km/h
624 15-05-2019 23:00:00 8.09167 C 5.32 g/m*3 8.09 C 0.93333 km/h
625 16-05-2019 00:00:00 7.39167 C 5.29 g/m*3 7.39 C 1.6 km/h
Sensor: Nr:Datum:Temp:Abs-Feuchte:Windchill:Wind:
Aussen-T/F 626 16-05-2019 01:00:00 6.64167 C 5.56 g/m*3 6.64 C 0 km/h
627 16-05-2019 02:00:00 5.725 C 5.61 g/m*3 5.73 C 0 km/h
628 16-05-2019 03:00:00 5.58333 C 5.8 g/m*3 5.58 C 0 km/h
629 16-05-2019 04:00:00 5.71667 C 5.95 g/m*3 5.72 C 0 km/h
630 16-05-2019 05:00:00 5.83333 C 6.04 g/m*3 5.83 C 0 km/h
631 16-05-2019 06:00:00 5.95 C 6.18 g/m*3 5.95 C 0.13333 km/h
632 16-05-2019 07:00:00 6.64167 C 6.45 g/m*3 6.64 C 0 km/h
633 16-05-2019 08:00:00 7.98333 C 6.84 g/m*3 7.98 C 0.13333 km/h
634 16-05-2019 09:00:00 9.95 C 6.81 g/m*3 9.95 C 4.15 km/h
635 16-05-2019 10:00:00 11.65833 C 6.56 g/m*3 11.66 C 8.45833 km/h
636 16-05-2019 11:00:00 12.20833 C 6.32 g/m*3 12.21 C 8.33333 km/h
637 16-05-2019 12:00:00 13.13333 C 6.73 g/m*3 13.13 C 8.875 km/h
638 16-05-2019 13:00:00 14.68333 C 7.13 g/m*3 14.68 C 10.76667 km/h
639 16-05-2019 14:00:00 15.4 C 7.34 g/m*3 15.4 C 10.48333 km/h
640 16-05-2019 15:00:00 17.38333 C 7.71 g/m*3 17.38 C 10.08333 km/h
641 16-05-2019 16:00:00 18.23333 C 7.73 g/m*3 18.23 C 8.45 km/h
642 16-05-2019 17:00:00 16.90833 C 7.77 g/m*3 16.91 C 9.69167 km/h
643 16-05-2019 18:00:00 15.44167 C 8.11 g/m*3 15.44 C 11.95 km/h
644 16-05-2019 19:00:00 14.075 C 8.25 g/m*3 14.08 C 4.41667 km/h
645 16-05-2019 20:00:00 12.56667 C 8.08 g/m*3 12.57 C 6.70833 km/h
646 16-05-2019 21:00:00 11.175 C 7.69 g/m*3 11.18 C 8.21667 km/h
647 16-05-2019 22:00:00 10.23333 C 7.8 g/m*3 10.23 C 4.29167 km/h
648 16-05-2019 23:00:00 9.60833 C 7.91 g/m*3 9.61 C 0.66667 km/h
649 17-05-2019 00:00:00 9.08333 C 8.06 g/m*3 9.08 C 0 km/h
650 17-05-2019 01:00:00 8.79167 C 8.05 g/m*3 8.79 C 0 km/h
Sensor: Nr:Datum:Temp:Abs-Feuchte:Windchill:Wind:
Aussen-T/F 651 17-05-2019 02:00:00 8.7 C 8.1 g/m*3 8.7 C 0 km/h
652 17-05-2019 03:00:00 8.63333 C 8.11 g/m*3 8.63 C 0.53333 km/h
653 17-05-2019 04:00:00 8.475 C 8.09 g/m*3 8.48 C 0.13333 km/h
654 17-05-2019 05:00:00 8.36667 C 8.04 g/m*3 8.37 C 0 km/h
655 17-05-2019 06:00:00 8.45 C 8.13 g/m*3 8.45 C 0 km/h
656 17-05-2019 07:00:00 8.71667 C 8.31 g/m*3 8.72 C 0.4 km/h
657 17-05-2019 08:00:00 8.96667 C 8.45 g/m*3 8.97 C 1.73333 km/h
658 17-05-2019 09:00:00 9.29167 C 8.62 g/m*3 9.29 C 1.86667 km/h
659 17-05-2019 10:00:00 9.625 C 8.81 g/m*3 9.63 C 4.825 km/h
660 17-05-2019 11:00:00 10.2 C 9.05 g/m*3 10.2 C 3.86667 km/h
661 17-05-2019 12:00:00 11.175 C 9.49 g/m*3 11.18 C 6.425 km/h
662 17-05-2019 13:00:00 12.825 C 10 g/m*3 12.83 C 8.625 km/h
663 17-05-2019 14:00:00 14.44167 C 10.43 g/m*3 14.44 C 6.58333 km/h
664 17-05-2019 15:00:00 15.54167 C 10.58 g/m*3 15.54 C 7.26667 km/h
665 17-05-2019 16:00:00 16.35 C 10.47 g/m*3 16.35 C 7.65833 km/h
666 17-05-2019 17:00:00 17.35 C 10.47 g/m*3 17.35 C 6.70833 km/h
667 17-05-2019 18:00:00 16.8 C 11.2 g/m*3 16.8 C 2 km/h
668 17-05-2019 19:00:00 16.625 C 11.34 g/m*3 16.63 C 0.26667 km/h
669 17-05-2019 20:00:00 13.975 C 10.28 g/m*3 13.98 C 0.26667 km/h
670 17-05-2019 21:00:00 12.00833 C 9.56 g/m*3 12.01 C 0.26667 km/h
671 17-05-2019 22:00:00 11.96667 C 9.78 g/m*3 11.97 C 0 km/h
672 17-05-2019 23:00:00 12.05833 C 9.99 g/m*3 12.06 C 0.4 km/h
673 18-05-2019 00:00:00 11.6 C 9.77 g/m*3 11.6 C 0 km/h
674 18-05-2019 01:00:00 10.44167 C 9.12 g/m*3 10.44 C 0.4 km/h
675 18-05-2019 02:00:00 10.58333 C 9.34 g/m*3 10.58 C 0 km/h
Sensor: Nr:Datum:Temp:Abs-Feuchte:Windchill:Wind:
Aussen-T/F 676 18-05-2019 03:00:00 10.43333 C 9.26 g/m*3 10.43 C 0 km/h
677 18-05-2019 04:00:00 9.925 C 8.98 g/m*3 9.93 C 0 km/h
678 18-05-2019 05:00:00 9.31667 C 8.64 g/m*3 9.32 C 0 km/h
679 18-05-2019 06:00:00 9.35833 C 8.7 g/m*3 9.36 C 0 km/h
680 18-05-2019 07:00:00 10.23333 C 9.25 g/m*3 10.23 C 0.13333 km/h
681 18-05-2019 08:00:00 11.2 C 9.82 g/m*3 11.2 C 1.6 km/h
682 18-05-2019 09:00:00 12.275 C 10.26 g/m*3 12.28 C 0.66667 km/h
683 18-05-2019 10:00:00 14.16667 C 11.13 g/m*3 14.17 C 1.2 km/h
684 18-05-2019 11:00:00 16.9 C 11.11 g/m*3 16.9 C 4.675 km/h
685 18-05-2019 12:00:00 18.14167 C 11.07 g/m*3 18.14 C 3.86667 km/h
686 18-05-2019 13:00:00 19.01667 C 11.27 g/m*3 19.02 C 4.15833 km/h
687 18-05-2019 14:00:00 20.34167 C 11.02 g/m*3 20.34 C 5.50833 km/h
688 18-05-2019 15:00:00 21.05833 C 10.74 g/m*3 21.06 C 6.30833 km/h
689 18-05-2019 16:00:00 22.41667 C 11.99 g/m*3 22.42 C 8.05833 km/h
690 18-05-2019 17:00:00 21.04167 C 12.96 g/m*3 21.04 C 0.26667 km/h
691 18-05-2019 18:00:00 18.54167 C 12.15 g/m*3 18.54 C 2 km/h
692 18-05-2019 19:00:00 15.85 C 11.74 g/m*3 15.85 C 1.33333 km/h
693 18-05-2019 20:00:00 14.79167 C 11.45 g/m*3 14.79 C 0 km/h
694 18-05-2019 21:00:00 13.71667 C 10.91 g/m*3 13.72 C 0.26667 km/h
695 18-05-2019 22:00:00 12.75 C 10.42 g/m*3 12.75 C 0.26667 km/h
696 18-05-2019 23:00:00 12.53333 C 10.43 g/m*3 12.53 C 0.66667 km/h
697 19-05-2019 00:00:00 12.79167 C 10.64 g/m*3 12.79 C 0 km/h
698 19-05-2019 01:00:00 12.73333 C 10.6 g/m*3 12.73 C 0.4 km/h
699 19-05-2019 02:00:00 12.26667 C 10.29 g/m*3 12.27 C 0 km/h
700 19-05-2019 03:00:00 11.71667 C 10 g/m*3 11.72 C 0 km/h
Sensor: Nr:Datum:Temp:Abs-Feuchte:Windchill:Wind:
Aussen-T/F 701 19-05-2019 04:00:00 11.625 C 9.99 g/m*3 11.63 C 0 km/h
702 19-05-2019 05:00:00 11.38333 C 9.84 g/m*3 11.38 C 0 km/h
703 19-05-2019 06:00:00 11.475 C 9.99 g/m*3 11.48 C 0.13333 km/h
704 19-05-2019 07:00:00 12.13333 C 10.42 g/m*3 12.13 C 0.93333 km/h
705 19-05-2019 08:00:00 12.825 C 10.88 g/m*3 12.83 C 2 km/h
706 19-05-2019 09:00:00 13.73333 C 11.5 g/m*3 13.73 C 2.66667 km/h
707 19-05-2019 10:00:00 15.11667 C 12.25 g/m*3 15.12 C 0.66667 km/h
708 19-05-2019 11:00:00 16.26667 C 12.5 g/m*3 16.27 C 2.66667 km/h
709 19-05-2019 12:00:00 17.99167 C 12.93 g/m*3 17.99 C 7.525 km/h
710 19-05-2019 13:00:00 18.78333 C 12.47 g/m*3 18.78 C 8.88333 km/h
711 19-05-2019 14:00:00 20.225 C 11.78 g/m*3 20.23 C 8.89167 km/h
712 19-05-2019 15:00:00 22.54167 C 12.28 g/m*3 22.54 C 9.55833 km/h
713 19-05-2019 16:00:00 23.4 C 12.28 g/m*3 23.4 C 11.69167 km/h
714 19-05-2019 17:00:00 19.25833 C 10.48 g/m*3 19.26 C 9.525 km/h
715 19-05-2019 18:00:00 19.96667 C 11.24 g/m*3 19.97 C 7.39167 km/h
716 19-05-2019 19:00:00 20.475 C 11.22 g/m*3 20.48 C 3.73333 km/h
717 19-05-2019 20:00:00 18.96667 C 11.15 g/m*3 18.97 C 0.4 km/h
718 19-05-2019 21:00:00 15.7 C 10.82 g/m*3 15.7 C 0.13333 km/h
719 19-05-2019 22:00:00 14.53333 C 10.74 g/m*3 14.53 C 1.06667 km/h
720 19-05-2019 23:00:00 14.65833 C 10.64 g/m*3 14.66 C 2.40833 km/h

Maximal/Minimal-Werte vom 20.04.2019 - 19.05.2019

Sensor Min Max Avg
Temp
(Aussen-T/F)
2.2 °C
13-05-2019  06:50:00
26.6 °C
24-04-2019  17:05:00
11.39 °C
Abs-Feuchte
(Aussen-T/F)
3.74 g/m*3
13-05-2019  13:00:00
12.96 g/m*3
18-05-2019  17:00:00
7.61 g/m*3
Windchill
(Aussen-T/F)
1.07 C
04-05-2019  06:00:00
26.13 C
21-04-2019  18:00:00
11.25 C

Die Daten stammen von einer Davis Vantage Pro 2 Wetter-Station und werden unter Linux mit der Software wview2wettercgi und aufbereitet. Alle Angaben erfolgen ohne Gewähr für ihre Vollständigkeit oder Richtigkeit.
Kontakt: Rainer Krienke krienke@uni-koblenz.de . Meine Webseiten an der Uni Koblenz oder privat.
Version: $Revision: 0.78 $